Time,TemperatureF,DewpointF,PressureIn,WindDirection,WindDirectionDegrees,WindSpeedMPH,WindSpeedGustMPH,Humidity,HourlyPrecipIn,Conditions,Clouds,dailyrainin,SoftwareType,DateUTC
2013-11-20 00:00:00,29.8,16.8,30.29,SW,218,1.5,3.5,58,0.00,CLR,,0.00,WeatherDisplay:10.37,2013-11-20 05:00:00,
2013-11-20 00:01:00,29.9,16.9,30.29,NW,305,0.8,3.5,58,0.00,CLR,,0.00,WeatherDisplay:10.37,2013-11-20 05:01:00,
2013-11-20 00:02:00,29.9,16.9,30.29,West,270,3.0,4.0,58,0.00,CLR,,0.00,WeatherDisplay:10.37,2013-11-20 05:02:00,
2013-11-20 00:03:00,29.8,16.8,30.29,WNW,289,2.2,5.8,58,0.00,CLR,,0.00,WeatherDisplay:10.37,2013-11-20 05:03:00,
2013-11-20 00:08:00,29.9,16.9,30.30,NW,304,1.2,2.3,58,0.00,CLR,,0.00,WeatherDisplay:10.37,2013-11-20 05:08:00,
2013-11-20 00:13:00,29.8,17.6,30.30,NNW,334,3.3,3.5,60,0.00,CLR,,0.00,WeatherDisplay:10.37,2013-11-20 05:13:00,
2013-11-20 00:18:00,29.8,16.8,30.30,West,269,0.3,2.3,58,0.00,CLR,,0.00,WeatherDisplay:10.37,2013-11-20 05:18:00,
2013-11-20 00:23:00,29.7,16.7,30.30,NNW,346,1.3,3.5,58,0.00,CLR,,0.00,WeatherDisplay:10.37,2013-11-20 05:23:00,
2013-11-20 00:28:00,29.6,16.6,30.31,NW,325,0.0,0.0,58,0.00,CLR,,0.00,WeatherDisplay:10.37,2013-11-20 05:28:00,
2013-11-20 00:33:00,29.5,16.5,30.31,WNW,299,2.2,3.5,58,0.00,CLR,,0.00,WeatherDisplay:10.37,2013-11-20 05:33:00,
2013-11-20 00:38:00,29.4,17.2,30.31,ENE,67,1.2,2.3,60,0.00,CLR,,0.00,WeatherDisplay:10.37,2013-11-20 05:38:00,
2013-11-20 00:43:00,29.4,16.8,30.31,WNW,286,0.5,1.2,59,0.00,CLR,,0.00,WeatherDisplay:10.37,2013-11-20 05:43:00,
2013-11-20 00:48:00,29.3,16.7,30.31,NNE,16,1.9,3.5,59,0.00,CLR,,0.00,WeatherDisplay:10.37,2013-11-20 05:48:00,
2013-11-20 00:53:00,29.2,17.0,30.32,NNW,333,3.2,4.6,60,0.00,CLR,,0.00,WeatherDisplay:10.37,2013-11-20 05:53:00,
2013-11-20 00:58:00,29.1,16.5,30.32,NW,322,2.2,6.0,59,0.00,CLR,,0.00,WeatherDisplay:10.37,2013-11-20 05:58:00,
2013-11-20 01:03:00,29.2,17.0,30.32,NW,326,2.0,3.5,60,0.00,CLR,,0.00,WeatherDisplay:10.37,2013-11-20 06:03:00,
2013-11-20 01:08:00,29.1,16.9,30.32,SW,234,3.3,6.9,60,0.00,CLR,,0.00,WeatherDisplay:10.37,2013-11-20 06:08:00,
2013-11-20 01:13:00,29.2,16.6,30.32,WSW,239,1.9,3.5,59,0.00,CLR,,0.00,WeatherDisplay:10.37,2013-11-20 06:13:00,
2013-11-20 01:18:00,29.1,16.9,30.33,NE,42,2.8,4.6,60,0.00,CLR,,0.00,WeatherDisplay:10.37,2013-11-20 06:18:00,
2013-11-20 01:23:00,29.0,16.8,30.33,NNW,327,0.8,3.0,60,0.00,CLR,,0.00,WeatherDisplay:10.37,2013-11-20 06:23:00,
2013-11-20 01:28:00,28.8,17.4,30.33,NNW,336,1.2,2.3,62,0.00,CLR,,0.00,WeatherDisplay:10.37,2013-11-20 06:28:00,
2013-11-20 01:33:00,28.7,17.3,30.34,NNE,13,0.3,2.0,62,0.00,CLR,,0.00,WeatherDisplay:10.37,2013-11-20 06:33:00,
2013-11-20 01:38:00,28.6,17.2,30.34,WSW,242,1.8,4.0,62,0.00,CLR,,0.00,WeatherDisplay:10.37,2013-11-20 06:38:00,
2013-11-20 01:43:00,28.6,17.2,30.35,WNW,300,1.8,4.6,62,0.00,CLR,,0.00,WeatherDisplay:10.37,2013-11-20 06:43:00,
2013-11-20 01:48:00,28.6,17.2,30.35,WNW,302,1.7,2.3,62,0.00,CLR,,0.00,WeatherDisplay:10.37,2013-11-20 06:48:00,
2013-11-20 01:53:00,28.6,17.2,30.35,NNE,21,0.6,3.5,62,0.00,CLR,,0.00,WeatherDisplay:10.37,2013-11-20 06:53:00,
2013-11-20 01:58:00,28.5,17.5,30.35,WSW,239,2.3,6.0,63,0.00,CLR,,0.00,WeatherDisplay:10.37,2013-11-20 06:58:00,
2013-11-20 02:03:00,28.6,17.6,30.36,WNW,292,2.1,3.5,63,0.00,CLR,,0.00,WeatherDisplay:10.37,2013-11-20 07:03:00,
2013-11-20 02:08:00,28.7,17.7,30.36,WNW,296,1.0,2.3,63,0.00,CLR,,0.00,WeatherDisplay:10.37,2013-11-20 07:08:00,
2013-11-20 02:13:00,28.6,17.2,30.36,WNW,283,3.6,5.8,62,0.00,CLR,,0.00,WeatherDisplay:10.37,2013-11-20 07:13:00,
2013-11-20 02:18:00,28.6,17.2,30.36,West,265,0.6,3.0,62,0.00,CLR,,0.00,WeatherDisplay:10.37,2013-11-20 07:18:00,
2013-11-20 02:23:00,28.6,17.2,30.37,WNW,297,2.0,3.5,62,0.00,CLR,,0.00,WeatherDisplay:10.37,2013-11-20 07:23:00,
2013-11-20 02:28:00,28.6,17.2,30.37,NW,305,1.7,4.0,62,0.00,CLR,,0.00,WeatherDisplay:10.37,2013-11-20 07:28:00,
2013-11-20 02:33:00,28.6,17.6,30.37,NW,316,0.5,2.3,63,0.00,CLR,,0.00,WeatherDisplay:10.37,2013-11-20 07:33:00,
2013-11-20 02:38:00,28.5,17.5,30.37,NW,309,0.5,1.2,63,0.00,CLR,,0.00,WeatherDisplay:10.37,2013-11-20 07:38:00,
2013-11-20 02:43:00,28.4,17.4,30.37,West,279,0.4,1.2,63,0.00,CLR,,0.00,WeatherDisplay:10.37,2013-11-20 07:43:00,
2013-11-20 02:48:00,28.2,17.6,30.37,WNW,295,0.6,2.3,64,0.00,CLR,,0.00,WeatherDisplay:10.37,2013-11-20 07:48:00,
2013-11-20 02:53:00,28.1,17.5,30.37,West,261,0.6,3.5,64,0.00,CLR,,0.00,WeatherDisplay:10.37,2013-11-20 07:53:00,
2013-11-20 02:58:00,28.1,17.5,30.38,WNW,302,0.0,0.0,64,0.00,CLR,,0.00,WeatherDisplay:10.37,2013-11-20 07:58:00,
2013-11-20 03:03:00,28.1,17.5,30.38,West,262,0.7,3.0,64,0.00,CLR,,0.00,WeatherDisplay:10.37,2013-11-20 08:03:00,
2013-11-20 03:08:00,28.0,17.7,30.38,NE,37,1.6,3.5,65,0.00,CLR,,0.00,WeatherDisplay:10.37,2013-11-20 08:08:00,
2013-11-20 03:13:00,28.0,17.7,30.39,NNW,329,0.0,1.2,65,0.00,CLR,,0.00,WeatherDisplay:10.37,2013-11-20 08:13:00,
2013-11-20 03:18:00,28.0,17.7,30.39,WNW,288,0.7,3.5,65,0.00,CLR,,0.00,WeatherDisplay:10.37,2013-11-20 08:18:00,
2013-11-20 03:23:00,28.0,18.1,30.39,WNW,300,2.2,3.5,66,0.00,CLR,,0.00,WeatherDisplay:10.37,2013-11-20 08:23:00,
2013-11-20 03:28:00,28.0,18.1,30.39,NNE,12,0.3,1.2,66,0.00,CLR,,0.00,WeatherDisplay:10.37,2013-11-20 08:28:00,
2013-11-20 03:33:00,28.0,17.7,30.40,NNE,29,0.6,2.3,65,0.00,CLR,,0.00,WeatherDisplay:10.37,2013-11-20 08:33:00,
2013-11-20 03:38:00,27.9,17.6,30.40,NNE,13,0.0,0.0,65,0.00,CLR,,0.00,WeatherDisplay:10.37,2013-11-20 08:38:00,
2013-11-20 03:43:00,27.8,17.9,30.40,NE,54,0.0,1.2,66,0.00,CLR,,0.00,WeatherDisplay:10.37,2013-11-20 08:43:00,
2013-11-20 03:48:00,27.7,17.5,30.40,WNW,302,0.3,2.3,65,0.00,CLR,,0.00,WeatherDisplay:10.37,2013-11-20 08:48:00,
2013-11-20 03:53:00,27.7,17.5,30.41,SW,234,1.1,2.3,65,0.00,CLR,,0.00,WeatherDisplay:10.37,2013-11-20 08:53:00,
2013-11-20 03:58:00,27.7,17.5,30.41,WSW,252,1.3,3.5,65,0.00,CLR,,0.00,WeatherDisplay:10.37,2013-11-20 08:58:00,
2013-11-20 04:03:00,27.7,17.8,30.41,WSW,252,0.0,0.0,66,0.00,CLR,,0.00,WeatherDisplay:10.37,2013-11-20 09:03:00,
2013-11-20 04:08:00,27.5,17.6,30.41,WSW,252,0.4,2.3,66,0.00,CLR,,0.00,WeatherDisplay:10.37,2013-11-20 09:08:00,
2013-11-20 04:13:00,27.4,17.5,30.41,NW,316,2.1,3.5,66,0.00,CLR,,0.00,WeatherDisplay:10.37,2013-11-20 09:13:00,
2013-11-20 04:18:00,27.4,17.5,30.41,WSW,258,1.9,3.5,66,0.00,CLR,,0.00,WeatherDisplay:10.37,2013-11-20 09:18:00,
2013-11-20 04:23:00,27.5,17.3,30.42,NNW,329,1.0,2.3,65,0.00,CLR,,0.00,WeatherDisplay:10.37,2013-11-20 09:23:00,
2013-11-20 04:28:00,27.4,17.5,30.42,NW,315,0.8,2.3,66,0.00,CLR,,0.00,WeatherDisplay:10.37,2013-11-20 09:28:00,
2013-11-20 04:33:00,27.1,17.2,30.42,NW,309,3.0,3.5,66,0.00,CLR,,0.00,WeatherDisplay:10.37,2013-11-20 09:33:00,
2013-11-20 04:38:00,27.1,17.2,30.42,NW,313,1.8,3.5,66,0.00,CLR,,0.00,WeatherDisplay:10.37,2013-11-20 09:38:00,
2013-11-20 04:43:00,27.0,17.1,30.42,NW,306,1.2,2.3,66,0.00,CLR,,0.00,WeatherDisplay:10.37,2013-11-20 09:43:00,
2013-11-20 04:48:00,26.9,17.0,30.43,NNW,333,1.1,3.5,66,0.00,CLR,,0.00,WeatherDisplay:10.37,2013-11-20 09:48:00,
2013-11-20 04:53:00,26.9,17.0,30.43,NW,304,1.7,3.5,66,0.00,CLR,,0.00,WeatherDisplay:10.37,2013-11-20 09:53:00,
2013-11-20 04:58:00,26.9,16.7,30.44,NW,308,1.6,3.0,65,0.00,CLR,,0.00,WeatherDisplay:10.37,2013-11-20 09:58:00,
2013-11-20 05:03:00,26.9,17.0,30.44,NNW,334,3.5,5.8,66,0.00,CLR,,0.00,WeatherDisplay:10.37,2013-11-20 10:03:00,
2013-11-20 05:08:00,26.8,17.0,30.44,NW,313,1.1,2.3,66,0.00,CLR,,0.00,WeatherDisplay:10.37,2013-11-20 10:08:00,
2013-11-20 05:13:00,26.5,16.7,30.44,NW,315,2.8,5.8,66,0.00,CLR,,0.00,WeatherDisplay:10.37,2013-11-20 10:13:00,
2013-11-20 05:18:00,26.5,16.7,30.44,NW,315,0.2,1.2,66,0.00,CLR,,0.00,WeatherDisplay:10.37,2013-11-20 10:18:00,
2013-11-20 05:23:00,26.3,16.8,30.45,NW,315,0.5,2.3,67,0.00,CLR,,0.00,WeatherDisplay:10.37,2013-11-20 10:23:00,
2013-11-20 05:28:00,26.2,16.4,30.45,WNW,288,2.3,4.0,66,0.00,CLR,,0.00,WeatherDisplay:10.37,2013-11-20 10:28:00,
2013-11-20 05:33:00,26.5,16.7,30.45,NW,310,4.3,6.9,66,0.00,CLR,,0.00,WeatherDisplay:10.37,2013-11-20 10:33:00,
2013-11-20 05:38:00,26.7,16.5,30.46,NW,305,2.2,3.5,65,0.00,CLR,,0.00,WeatherDisplay:10.37,2013-11-20 10:38:00,
2013-11-20 05:43:00,26.6,16.1,30.46,NNW,327,1.2,2.3,64,0.00,CLR,,0.00,WeatherDisplay:10.37,2013-11-20 10:43:00,
2013-11-20 05:48:00,26.5,16.3,30.47,NW,305,1.7,3.5,65,0.00,CLR,,0.00,WeatherDisplay:10.37,2013-11-20 10:48:00,
2013-11-20 05:53:00,26.5,16.0,30.47,North,360,1.0,2.3,64,0.00,CLR,,0.00,WeatherDisplay:10.37,2013-11-20 10:53:00,
2013-11-20 05:58:00,26.5,16.0,30.47,NNW,338,1.2,3.5,64,0.00,CLR,,0.00,WeatherDisplay:10.37,2013-11-20 10:58:00,
2013-11-20 06:03:00,26.5,16.0,30.47,NW,320,2.0,3.5,64,0.00,CLR,,0.00,WeatherDisplay:10.37,2013-11-20 11:03:00,
2013-11-20 06:08:00,26.5,16.3,30.48,NW,323,3.5,5.0,65,0.00,CLR,,0.00,WeatherDisplay:10.37,2013-11-20 11:08:00,
2013-11-20 06:13:00,26.4,16.2,30.47,NW,319,3.4,3.5,65,0.00,CLR,,0.00,WeatherDisplay:10.37,2013-11-20 11:13:00,
2013-11-20 06:18:00,26.3,16.1,30.47,WNW,298,4.1,5.0,65,0.00,CLR,,0.00,WeatherDisplay:10.37,2013-11-20 11:18:00,
2013-11-20 06:23:00,26.2,16.4,30.47,NW,304,3.4,4.6,66,0.00,CLR,,0.00,WeatherDisplay:10.37,2013-11-20 11:23:00,
2013-11-20 06:28:00,26.1,16.3,30.47,NW,308,2.3,3.5,66,0.00,CLR,,0.00,WeatherDisplay:10.37,2013-11-20 11:28:00,
2013-11-20 06:33:00,26.1,15.9,30.47,NW,311,0.6,2.3,65,0.00,CLR,,0.00,WeatherDisplay:10.37,2013-11-20 11:33:00,
2013-11-20 06:38:00,26.0,15.8,30.48,West,279,0.3,2.3,65,0.00,CLR,,0.00,WeatherDisplay:10.37,2013-11-20 11:38:00,
2013-11-20 06:43:00,26.0,15.8,30.49,West,281,0.5,1.2,65,0.00,CLR,,0.00,WeatherDisplay:10.37,2013-11-20 11:43:00,
2013-11-20 06:48:00,26.0,16.2,30.49,West,281,1.1,2.3,66,0.00,CLR,,0.00,WeatherDisplay:10.37,2013-11-20 11:48:00,
2013-11-20 06:53:00,26.0,16.2,30.49,NW,304,1.7,3.5,66,0.00,CLR,,0.00,WeatherDisplay:10.37,2013-11-20 11:53:00,
2013-11-20 06:58:00,25.8,16.3,30.49,NW,319,2.2,3.5,67,0.00,CLR,,0.00,WeatherDisplay:10.37,2013-11-20 11:58:00,
2013-11-20 07:03:00,25.5,16.4,30.49,WNW,294,2.9,3.5,68,0.00,CLR,,0.00,WeatherDisplay:10.37,2013-11-20 12:03:00,
2013-11-20 07:08:00,25.5,16.4,30.49,NW,316,2.7,4.6,68,0.00,CLR,,0.00,WeatherDisplay:10.37,2013-11-20 12:08:00,
2013-11-20 07:13:00,25.6,16.5,30.49,NW,320,2.0,3.5,68,0.00,CLR,,0.00,WeatherDisplay:10.37,2013-11-20 12:13:00,
2013-11-20 07:18:00,25.6,16.5,30.49,NNW,334,2.0,4.6,68,0.00,CLR,,0.00,WeatherDisplay:10.37,2013-11-20 12:18:00,
2013-11-20 07:23:00,25.7,16.6,30.50,NW,308,2.2,4.6,68,0.00,CLR,,0.00,WeatherDisplay:10.37,2013-11-20 12:23:00,
2013-11-20 07:28:00,25.9,16.4,30.51,NE,46,3.6,6.9,67,0.00,CLR,,0.00,WeatherDisplay:10.37,2013-11-20 12:28:00,
2013-11-20 07:33:00,26.1,16.6,30.51,NNE,24,1.5,2.3,67,0.00,CLR,,0.00,WeatherDisplay:10.37,2013-11-20 12:33:00,
2013-11-20 07:39:00,26.3,16.8,30.51,West,277,1.7,3.5,67,0.00,CLR,,0.00,WeatherDisplay:10.37,2013-11-20 12:39:00,
2013-11-20 07:44:00,26.3,16.8,30.51,NW,319,1.3,2.3,67,0.00,CLR,,0.00,WeatherDisplay:10.37,2013-11-20 12:44:00,
2013-11-20 07:49:00,26.3,16.8,30.51,NNW,333,2.7,5.8,67,0.00,CLR,,0.00,WeatherDisplay:10.37,2013-11-20 12:49:00,
2013-11-20 07:54:00,26.5,16.7,30.51,NW,309,2.8,5.0,66,0.00,CLR,,0.00,WeatherDisplay:10.37,2013-11-20 12:54:00,
2013-11-20 07:59:00,26.5,17.0,30.51,NNW,337,4.9,7.0,67,0.00,CLR,,0.00,WeatherDisplay:10.37,2013-11-20 12:59:00,
2013-11-20 08:04:00,26.6,17.1,30.51,NW,322,2.5,5.8,67,0.00,CLR,,0.00,WeatherDisplay:10.37,2013-11-20 13:04:00,
2013-11-20 08:09:00,26.8,17.0,30.51,NW,312,1.6,3.5,66,0.00,CLR,,0.00,WeatherDisplay:10.37,2013-11-20 13:09:00,
2013-11-20 08:14:00,26.9,17.0,30.51,NNE,15,1.9,4.0,66,0.00,CLR,,0.00,WeatherDisplay:10.37,2013-11-20 13:14:00,
2013-11-20 08:19:00,27.1,16.9,30.51,SSE,163,1.7,3.5,65,0.00,CLR,,0.00,WeatherDisplay:10.37,2013-11-20 13:19:00,
2013-11-20 08:24:00,27.1,17.2,30.52,WSW,240,3.6,4.6,66,0.00,CLR,,0.00,WeatherDisplay:10.37,2013-11-20 13:24:00,
2013-11-20 08:29:00,27.2,17.3,30.53,SW,231,3.5,4.0,66,0.00,CLR,,0.00,WeatherDisplay:10.37,2013-11-20 13:29:00,
2013-11-20 08:34:00,27.4,17.5,30.53,NE,52,1.3,3.5,66,0.00,CLR,,0.00,WeatherDisplay:10.37,2013-11-20 13:34:00,
2013-11-20 08:39:00,27.4,17.2,30.53,ENE,74,0.9,3.0,65,0.00,CLR,,0.00,WeatherDisplay:10.37,2013-11-20 13:39:00,
2013-11-20 08:44:00,27.5,17.3,30.53,WNW,299,0.3,2.3,65,0.00,CLR,,0.00,WeatherDisplay:10.37,2013-11-20 13:44:00,
2013-11-20 08:49:00,27.6,17.4,30.53,West,264,3.2,4.6,65,0.00,CLR,,0.00,WeatherDisplay:10.37,2013-11-20 13:49:00,
2013-11-20 08:54:00,27.8,17.2,30.53,NE,34,2.4,4.6,64,0.00,CLR,,0.00,WeatherDisplay:10.37,2013-11-20 13:54:00,
2013-11-20 08:59:00,27.9,17.6,30.53,NW,313,2.0,3.5,65,0.00,CLR,,0.00,WeatherDisplay:10.37,2013-11-20 13:59:00,
2013-11-20 09:04:00,27.9,17.3,30.53,WNW,287,3.8,8.1,64,0.00,CLR,,0.00,WeatherDisplay:10.37,2013-11-20 14:04:00,
2013-11-20 09:09:00,28.1,17.1,30.54,NW,309,2.6,5.8,63,0.00,CLR,,0.00,WeatherDisplay:10.37,2013-11-20 14:09:00,
2013-11-20 09:14:00,28.4,17.0,30.54,NW,315,4.6,8.1,62,0.00,CLR,,0.00,WeatherDisplay:10.37,2013-11-20 14:14:00,
2013-11-20 09:19:00,28.5,17.1,30.54,NNW,327,2.8,4.6,62,0.00,CLR,,0.00,WeatherDisplay:10.37,2013-11-20 14:19:00,
2013-11-20 09:24:00,28.7,17.3,30.54,NW,314,2.3,3.5,62,0.00,CLR,,0.00,WeatherDisplay:10.37,2013-11-20 14:24:00,
2013-11-20 09:29:00,28.9,17.5,30.54,NNW,331,1.8,4.6,62,0.00,CLR,,0.00,WeatherDisplay:10.37,2013-11-20 14:29:00,
2013-11-20 09:34:00,29.0,17.6,30.54,NW,319,1.6,3.5,62,0.00,CLR,,0.00,WeatherDisplay:10.37,2013-11-20 14:34:00,
2013-11-20 09:39:00,29.2,17.4,30.54,West,277,3.8,8.1,61,0.00,CLR,,0.00,WeatherDisplay:10.37,2013-11-20 14:39:00,
2013-11-20 09:44:00,29.4,17.2,30.55,NW,323,4.6,8.1,60,0.00,CLR,,0.00,WeatherDisplay:10.37,2013-11-20 14:44:00,
2013-11-20 09:49:00,29.6,17.0,30.55,North,355,1.6,3.5,59,0.00,CLR,,0.00,WeatherDisplay:10.37,2013-11-20 14:49:00,
2013-11-20 09:54:00,29.7,17.5,30.55,NW,309,4.0,10.4,60,0.00,CLR,,0.00,WeatherDisplay:10.37,2013-11-20 14:54:00,
2013-11-20 09:59:00,29.8,17.2,30.56,NW,319,2.3,3.5,59,0.00,CLR,,0.00,WeatherDisplay:10.37,2013-11-20 14:59:00,
2013-11-20 10:04:00,30.1,17.5,30.56,NW,311,3.0,5.8,59,0.00,CLR,,0.00,WeatherDisplay:10.37,2013-11-20 15:04:00,
2013-11-20 10:09:00,30.2,18.0,30.56,NNW,328,3.8,5.0,60,0.00,CLR,,0.00,WeatherDisplay:10.37,2013-11-20 15:09:00,
2013-11-20 10:14:00,30.4,17.8,30.56,NW,307,4.6,6.9,59,0.00,CLR,,0.00,WeatherDisplay:10.37,2013-11-20 15:14:00,
2013-11-20 10:19:00,30.5,17.1,30.56,North,11,0.1,2.3,57,0.00,CLR,,0.00,WeatherDisplay:10.37,2013-11-20 15:19:00,
2013-11-20 10:24:00,30.6,17.6,30.56,NNW,344,3.1,5.8,58,0.00,CLR,,0.00,WeatherDisplay:10.37,2013-11-20 15:24:00,
2013-11-20 10:29:00,30.8,17.3,30.56,NNE,12,1.2,8.1,57,0.00,CLR,,0.00,WeatherDisplay:10.37,2013-11-20 15:29:00,
2013-11-20 10:34:00,30.9,17.4,30.56,NNE,12,1.0,2.3,57,0.00,CLR,,0.00,WeatherDisplay:10.37,2013-11-20 15:34:00,
2013-11-20 10:39:00,31.1,17.6,30.56,North,5,2.3,3.5,57,0.00,CLR,,0.00,WeatherDisplay:10.37,2013-11-20 15:39:00,
2013-11-20 10:44:00,31.3,17.8,30.56,NNE,13,2.2,4.6,57,0.00,CLR,,0.00,WeatherDisplay:10.37,2013-11-20 15:44:00,
2013-11-20 10:49:00,31.5,17.2,30.56,NW,311,4.6,8.1,55,0.00,CLR,,0.00,WeatherDisplay:10.37,2013-11-20 15:49:00,
2013-11-20 10:54:00,31.6,17.3,30.56,NNW,327,2.1,3.5,55,0.00,CLR,,0.00,WeatherDisplay:10.37,2013-11-20 15:54:00,
2013-11-20 10:59:00,31.7,17.4,30.56,West,272,3.5,4.6,55,0.00,CLR,,0.00,WeatherDisplay:10.37,2013-11-20 15:59:00,
2013-11-20 11:04:00,31.9,17.1,30.56,NW,305,1.0,2.3,54,0.00,CLR,,0.00,WeatherDisplay:10.37,2013-11-20 16:04:00,
2013-11-20 11:09:00,32.1,17.3,30.55,NNW,329,2.6,4.0,54,0.00,CLR,,0.00,WeatherDisplay:10.37,2013-11-20 16:09:00,
2013-11-20 11:14:00,32.3,17.1,30.55,NW,320,1.8,2.3,53,0.00,CLR,,0.00,WeatherDisplay:10.37,2013-11-20 16:14:00,
2013-11-20 11:19:00,32.5,15.9,30.55,WSW,256,2.5,6.9,50,0.00,CLR,,0.00,WeatherDisplay:10.37,2013-11-20 16:19:00,
2013-11-20 11:24:00,32.7,16.5,30.54,West,276,2.5,5.8,51,0.00,CLR,,0.00,WeatherDisplay:10.37,2013-11-20 16:24:00,
2013-11-20 11:29:00,32.8,16.6,30.54,WNW,284,1.5,3.5,51,0.00,CLR,,0.00,WeatherDisplay:10.37,2013-11-20 16:29:00,
2013-11-20 11:34:00,33.0,15.4,30.55,West,278,3.6,8.1,48,0.00,CLR,,0.00,WeatherDisplay:10.37,2013-11-20 16:34:00,
2013-11-20 11:39:00,33.1,16.0,30.54,West,267,2.5,5.0,49,0.00,CLR,,0.00,WeatherDisplay:10.37,2013-11-20 16:39:00,
2013-11-20 11:44:00,33.2,15.1,30.54,NW,324,1.6,4.6,47,0.00,CLR,,0.00,WeatherDisplay:10.37,2013-11-20 16:44:00,
2013-11-20 11:49:00,33.4,15.3,30.55,North,9,0.3,3.5,47,0.00,CLR,,0.00,WeatherDisplay:10.37,2013-11-20 16:49:00,
2013-11-20 11:54:00,33.6,15.0,30.54,NW,305,3.6,6.9,46,0.00,CLR,,0.00,WeatherDisplay:10.37,2013-11-20 16:54:00,
2013-11-20 11:59:00,33.8,14.7,30.54,NW,319,1.6,3.5,45,0.00,CLR,,0.00,WeatherDisplay:10.37,2013-11-20 16:59:00,
2013-11-20 12:04:00,34.1,15.5,30.54,NW,310,1.3,3.5,46,0.00,,,0.00,WeatherDisplay:10.37,2013-11-20 17:04:00,
2013-11-20 12:09:00,34.1,15.9,30.54,SW,233,1.7,3.0,47,0.00,,,0.00,WeatherDisplay:10.37,2013-11-20 17:09:00,
2013-11-20 12:14:00,34.2,15.0,30.54,NNW,331,2.5,6.0,45,0.00,,,0.00,WeatherDisplay:10.37,2013-11-20 17:14:00,
2013-11-20 12:19:00,34.6,15.4,30.54,NW,314,2.5,3.5,45,0.00,,,0.00,WeatherDisplay:10.37,2013-11-20 17:19:00,
2013-11-20 12:24:00,34.8,15.1,30.54,NW,306,0.6,5.8,44,0.00,,,0.00,WeatherDisplay:10.37,2013-11-20 17:24:00,
2013-11-20 12:29:00,34.9,14.6,30.54,NW,315,2.8,3.5,43,0.00,,,0.00,WeatherDisplay:10.37,2013-11-20 17:29:00,
2013-11-20 12:34:00,34.9,14.6,30.54,NW,313,1.5,2.3,43,0.00,,,0.00,WeatherDisplay:10.37,2013-11-20 17:34:00,
2013-11-20 12:39:00,35.0,14.7,30.54,NW,316,3.1,3.5,43,0.00,,,0.00,WeatherDisplay:10.37,2013-11-20 17:39:00,
2013-11-20 12:44:00,35.0,14.7,30.54,West,266,1.0,2.3,43,0.00,,,0.00,WeatherDisplay:10.37,2013-11-20 17:44:00,
2013-11-20 12:49:00,35.2,15.4,30.54,NE,37,2.9,4.0,44,0.00,,,0.00,WeatherDisplay:10.37,2013-11-20 17:49:00,
2013-11-20 12:54:00,35.4,15.1,30.54,North,11,0.1,1.2,43,0.00,,,0.00,WeatherDisplay:10.37,2013-11-20 17:54:00,
2013-11-20 12:59:00,35.5,14.1,30.54,WSW,240,0.5,2.3,41,0.00,,,0.00,WeatherDisplay:10.37,2013-11-20 17:59:00,
2013-11-20 13:04:00,35.6,14.2,30.54,West,278,1.3,2.3,41,0.00,,,0.00,WeatherDisplay:10.37,2013-11-20 18:04:00,
2013-11-20 13:09:00,35.7,15.4,30.54,NNW,330,2.6,2.6,43,0.00,,,0.00,WeatherDisplay:10.37,2013-11-20 18:09:00,
2013-11-20 13:14:00,35.6,14.2,30.53,West,263,2.6,4.6,41,0.00,,,0.00,WeatherDisplay:10.37,2013-11-20 18:14:00,
2013-11-20 13:19:00,35.7,15.4,30.53,NW,318,3.1,3.5,43,0.00,,,0.00,WeatherDisplay:10.37,2013-11-20 18:19:00,
2013-11-20 13:24:00,35.8,14.9,30.53,WNW,303,3.7,5.8,42,0.00,,,0.00,WeatherDisplay:10.37,2013-11-20 18:24:00,
2013-11-20 13:29:00,35.9,16.1,30.53,NW,312,1.4,3.5,44,0.00,,,0.00,WeatherDisplay:10.37,2013-11-20 18:29:00,
2013-11-20 13:34:00,35.9,15.5,30.53,NW,318,1.1,2.3,43,0.00,,,0.00,WeatherDisplay:10.37,2013-11-20 18:34:00,
2013-11-20 13:39:00,35.9,14.5,30.53,NW,315,2.4,4.0,41,0.00,,,0.00,WeatherDisplay:10.37,2013-11-20 18:39:00,
2013-11-20 13:44:00,35.9,14.5,30.53,West,267,1.0,1.2,41,0.00,,,0.00,WeatherDisplay:10.37,2013-11-20 18:44:00,
2013-11-20 13:49:00,35.8,14.4,30.53,NW,311,0.4,3.5,41,0.00,,,0.00,WeatherDisplay:10.37,2013-11-20 18:49:00,
2013-11-20 13:54:00,35.9,14.5,30.53,West,267,2.0,4.6,41,0.00,,,0.00,WeatherDisplay:10.37,2013-11-20 18:54:00,
2013-11-20 13:59:00,35.9,15.0,30.53,NNW,344,1.9,3.5,42,0.00,,,0.00,WeatherDisplay:10.37,2013-11-20 18:59:00,
2013-11-20 14:04:00,36.1,15.2,30.53,NW,317,4.5,7.0,42,0.00,,,0.00,WeatherDisplay:10.37,2013-11-20 19:04:00,
2013-11-20 14:09:00,36.2,14.2,30.53,West,268,3.8,4.6,40,0.00,,,0.00,WeatherDisplay:10.37,2013-11-20 19:09:00,
2013-11-20 14:14:00,36.1,14.1,30.53,NNW,338,1.6,3.0,40,0.00,,,0.00,WeatherDisplay:10.37,2013-11-20 19:14:00,
2013-11-20 14:19:00,36.1,13.5,30.53,NW,313,4.0,4.6,39,0.00,,,0.00,WeatherDisplay:10.37,2013-11-20 19:19:00,
2013-11-20 14:24:00,36.2,14.2,30.53,NNE,29,3.9,4.6,40,0.00,,,0.00,WeatherDisplay:10.37,2013-11-20 19:24:00,
2013-11-20 14:29:00,36.2,13.6,30.53,NNE,33,1.9,4.6,39,0.00,,,0.00,WeatherDisplay:10.37,2013-11-20 19:29:00,
2013-11-20 14:34:00,36.2,13.6,30.54,NW,316,2.2,2.3,39,0.00,,,0.00,WeatherDisplay:10.37,2013-11-20 19:34:00,
2013-11-20 14:39:00,36.4,14.3,30.54,NNW,332,0.8,2.3,40,0.00,,,0.00,WeatherDisplay:10.37,2013-11-20 19:39:00,
2013-11-20 14:44:00,36.3,13.7,30.54,NW,321,1.6,4.6,39,0.00,,,0.00,WeatherDisplay:10.37,2013-11-20 19:44:00,
2013-11-20 14:49:00,36.4,13.2,30.54,West,264,2.5,6.9,38,0.00,,,0.00,WeatherDisplay:10.37,2013-11-20 19:49:00,
2013-11-20 14:54:00,36.3,13.7,30.55,NW,314,0.9,3.5,39,0.00,,,0.00,WeatherDisplay:10.37,2013-11-20 19:54:00,
2013-11-20 14:59:00,36.2,14.2,30.54,NW,319,1.2,3.0,40,0.00,,,0.00,WeatherDisplay:10.37,2013-11-20 19:59:00,
2013-11-20 15:04:00,36.2,13.6,30.54,NNW,340,1.9,6.9,39,0.00,,,0.00,WeatherDisplay:10.37,2013-11-20 20:04:00,
2013-11-20 15:09:00,36.2,13.6,30.54,NNW,328,2.2,3.0,39,0.00,,,0.00,WeatherDisplay:10.37,2013-11-20 20:09:00,
2013-11-20 15:14:00,36.2,14.2,30.55,ENE,71,1.4,6.9,40,0.00,,,0.00,WeatherDisplay:10.37,2013-11-20 20:14:00,
2013-11-20 15:19:00,35.8,17.0,30.55,SW,221,0.9,3.5,46,0.00,,,0.00,WeatherDisplay:10.37,2013-11-20 20:19:00,
2013-11-20 15:24:00,35.3,16.6,30.55,West,270,0.6,2.3,46,0.00,,,0.00,WeatherDisplay:10.37,2013-11-20 20:24:00,
2013-11-20 15:29:00,34.9,17.2,30.55,WSW,251,0.3,1.0,48,0.00,,,0.00,WeatherDisplay:10.37,2013-11-20 20:29:00,
2013-11-20 15:34:00,34.4,17.7,30.55,WSW,251,0.7,2.3,50,0.00,,,0.00,WeatherDisplay:10.37,2013-11-20 20:34:00,
2013-11-20 15:39:00,33.9,17.2,30.55,WSW,251,0.0,1.2,50,0.00,,,0.00,WeatherDisplay:10.37,2013-11-20 20:39:00,
2013-11-20 15:44:00,33.5,16.8,30.55,WSW,251,0.1,0.0,50,0.00,,,0.00,WeatherDisplay:10.37,2013-11-20 20:44:00,
2013-11-20 15:49:00,33.2,16.5,30.55,West,273,0.3,1.2,50,0.00,,,0.00,WeatherDisplay:10.37,2013-11-20 20:49:00,
2013-11-20 15:54:00,33.1,17.8,30.55,West,273,0.9,2.3,53,0.00,,,0.00,WeatherDisplay:10.37,2013-11-20 20:54:00,
2013-11-20 15:59:00,32.8,17.5,30.55,West,273,0.9,1.2,53,0.00,,,0.00,WeatherDisplay:10.37,2013-11-20 20:59:00,
2013-11-20 16:04:00,32.6,16.9,30.55,West,273,0.0,1.2,52,0.00,,,0.00,WeatherDisplay:10.37,2013-11-20 21:04:00,
2013-11-20 16:09:00,32.4,17.2,30.55,West,273,0.0,0.0,53,0.00,,,0.00,WeatherDisplay:10.37,2013-11-20 21:09:00,
2013-11-20 16:14:00,32.3,16.6,30.55,West,273,0.0,0.0,52,0.00,,,0.00,WeatherDisplay:10.37,2013-11-20 21:14:00,
2013-11-20 16:19:00,32.1,17.3,30.55,West,273,0.0,1.2,54,0.00,,,0.00,WeatherDisplay:10.37,2013-11-20 21:19:00,
2013-11-20 16:24:00,31.8,17.9,30.55,West,273,0.0,0.0,56,0.00,,,0.00,WeatherDisplay:10.37,2013-11-20 21:24:00,
2013-11-20 16:29:00,31.5,18.4,30.55,West,273,0.3,1.2,58,0.00,,,0.00,WeatherDisplay:10.37,2013-11-20 21:29:00,
2013-11-20 16:34:00,31.3,17.8,30.55,West,273,0.0,0.0,57,0.00,,,0.00,WeatherDisplay:10.37,2013-11-20 21:34:00,
2013-11-20 16:39:00,31.2,17.3,30.56,West,273,0.0,0.0,56,0.00,,,0.00,WeatherDisplay:10.37,2013-11-20 21:39:00,
2013-11-20 16:44:00,31.0,17.1,30.56,West,273,0.4,1.2,56,0.00,,,0.00,WeatherDisplay:10.37,2013-11-20 21:44:00,
2013-11-20 16:49:00,30.9,17.0,30.56,West,273,0.0,0.0,56,0.00,,,0.00,WeatherDisplay:10.37,2013-11-20 21:49:00,
2013-11-20 16:54:00,30.8,18.1,30.56,West,273,0.0,1.2,59,0.00,,,0.00,WeatherDisplay:10.37,2013-11-20 21:54:00,
2013-11-20 16:59:00,30.6,18.3,30.56,West,273,0.0,1.2,60,0.00,,,0.00,WeatherDisplay:10.37,2013-11-20 21:59:00,
2013-11-20 17:04:00,30.3,17.7,30.56,West,273,0.7,1.2,59,0.00,,,0.00,WeatherDisplay:10.37,2013-11-20 22:04:00,
2013-11-20 17:09:00,30.2,18.0,30.56,West,273,0.4,1.2,60,0.00,,,0.00,WeatherDisplay:10.37,2013-11-20 22:09:00,
2013-11-20 17:14:00,30.1,18.3,30.56,West,273,0.0,0.0,61,0.00,,,0.00,WeatherDisplay:10.37,2013-11-20 22:14:00,
2013-11-20 17:19:00,30.0,18.5,30.57,West,273,0.2,1.2,62,0.00,,,0.00,WeatherDisplay:10.37,2013-11-20 22:19:00,
2013-11-20 17:24:00,29.9,18.8,30.57,West,273,0.0,0.0,63,0.00,,,0.00,WeatherDisplay:10.37,2013-11-20 22:24:00,
2013-11-20 17:29:00,29.9,19.2,30.57,West,273,0.1,1.2,64,0.00,,,0.00,WeatherDisplay:10.37,2013-11-20 22:29:00,
2013-11-20 17:34:00,29.7,17.9,30.57,West,273,0.4,1.2,61,0.00,,,0.00,WeatherDisplay:10.37,2013-11-20 22:34:00,
2013-11-20 17:39:00,29.6,18.9,30.57,West,273,0.0,0.0,64,0.00,,,0.00,WeatherDisplay:10.37,2013-11-20 22:39:00,
2013-11-20 17:44:00,29.5,19.5,30.57,West,273,0.0,0.0,66,0.00,,,0.00,WeatherDisplay:10.37,2013-11-20 22:44:00,
2013-11-20 17:49:00,29.5,19.2,30.57,West,273,0.0,0.0,65,0.00,,,0.00,WeatherDisplay:10.37,2013-11-20 22:49:00,
2013-11-20 17:54:00,29.6,19.6,30.58,West,273,0.0,0.0,66,0.00,,,0.00,WeatherDisplay:10.37,2013-11-20 22:54:00,
2013-11-20 17:59:00,29.6,19.6,30.58,West,273,0.0,1.0,66,0.00,,,0.00,WeatherDisplay:10.37,2013-11-20 22:59:00,
2013-11-20 18:05:00,29.6,19.6,30.58,West,273,0.3,2.3,66,0.00,,,0.00,WeatherDisplay:10.37,2013-11-20 23:05:00,
2013-11-20 18:10:00,29.3,19.0,30.58,West,273,0.0,1.2,65,0.00,,,0.00,WeatherDisplay:10.37,2013-11-20 23:10:00,
2013-11-20 18:15:00,28.9,19.7,30.58,West,273,0.0,0.0,68,0.00,,,0.00,WeatherDisplay:10.37,2013-11-20 23:15:00,
2013-11-20 18:20:00,28.7,18.8,30.58,West,273,0.0,0.0,66,0.00,,,0.00,WeatherDisplay:10.37,2013-11-20 23:20:00,
2013-11-20 18:25:00,28.7,19.8,30.58,West,273,0.0,0.0,69,0.00,,,0.00,WeatherDisplay:10.37,2013-11-20 23:25:00,
2013-11-20 18:30:00,28.7,19.8,30.58,West,273,0.2,1.2,69,0.00,,,0.00,WeatherDisplay:10.37,2013-11-20 23:30:00,
2013-11-20 18:35:00,29.0,19.1,30.58,West,273,0.0,1.2,66,0.00,,,0.00,WeatherDisplay:10.37,2013-11-20 23:35:00,
2013-11-20 18:40:00,28.9,19.0,30.58,West,273,1.2,2.3,66,0.00,,,0.00,WeatherDisplay:10.37,2013-11-20 23:40:00,
2013-11-20 18:45:00,28.6,20.1,30.58,West,273,0.0,0.0,70,0.00,,,0.00,WeatherDisplay:10.37,2013-11-20 23:45:00,
2013-11-20 18:50:00,28.6,20.4,30.58,West,273,0.0,0.0,71,0.00,,,0.00,WeatherDisplay:10.37,2013-11-20 23:50:00,
2013-11-20 18:55:00,28.9,19.7,30.59,SSW,205,0.3,2.0,68,0.00,,,0.00,WeatherDisplay:10.37,2013-11-20 23:55:00,
2013-11-20 19:00:00,29.2,19.6,30.59,WSW,251,1.0,2.0,67,0.00,,,0.00,WeatherDisplay:10.37,2013-11-21 00:00:00,
2013-11-20 19:05:00,29.0,20.1,30.59,West,276,0.0,1.2,69,0.00,,,0.00,WeatherDisplay:10.37,2013-11-21 00:05:00,
2013-11-20 19:10:00,29.2,19.6,30.59,West,276,0.0,0.0,67,0.00,,,0.00,WeatherDisplay:10.37,2013-11-21 00:10:00,
2013-11-20 19:15:00,29.3,19.7,30.59,West,276,0.0,0.0,67,0.00,,,0.00,WeatherDisplay:10.37,2013-11-21 00:15:00,
2013-11-20 19:20:00,29.3,19.3,30.59,West,276,0.0,0.0,66,0.00,,,0.00,WeatherDisplay:10.37,2013-11-21 00:20:00,
2013-11-20 19:25:00,29.7,19.0,30.59,South,183,0.3,1.2,64,0.00,,,0.00,WeatherDisplay:10.37,2013-11-21 00:25:00,
2013-11-20 19:30:00,30.0,18.9,30.59,South,187,0.5,2.3,63,0.00,,,0.00,WeatherDisplay:10.37,2013-11-21 00:30:00,
2013-11-20 19:35:00,30.2,18.7,30.59,South,187,0.2,1.2,62,0.00,,,0.00,WeatherDisplay:10.37,2013-11-21 00:35:00,
2013-11-20 19:40:00,30.3,18.5,30.59,South,187,0.0,0.0,61,0.00,,,0.00,WeatherDisplay:10.37,2013-11-21 00:40:00,
2013-11-20 19:45:00,30.4,19.3,30.59,SW,226,0.2,2.3,63,0.00,,,0.00,WeatherDisplay:10.37,2013-11-21 00:45:00,
2013-11-20 19:50:00,30.3,19.6,30.59,SW,226,0.3,1.2,64,0.00,,,0.00,WeatherDisplay:10.37,2013-11-21 00:50:00,
2013-11-20 19:55:00,30.2,19.5,30.59,SW,226,0.2,1.2,64,0.00,,,0.00,WeatherDisplay:10.37,2013-11-21 00:55:00,
2013-11-20 20:00:00,30.1,19.4,30.60,SW,226,0.4,0.0,64,0.00,,,0.00,WeatherDisplay:10.37,2013-11-21 01:00:00,
2013-11-20 20:05:00,29.8,18.7,30.60,SW,226,0.2,1.2,63,0.00,,,0.00,WeatherDisplay:10.37,2013-11-21 01:05:00,
2013-11-20 20:10:00,29.4,19.4,30.60,SW,226,0.2,1.2,66,0.00,,,0.00,WeatherDisplay:10.37,2013-11-21 01:10:00,
2013-11-20 20:15:00,29.2,19.6,30.60,SW,226,0.4,1.2,67,0.00,,,0.00,WeatherDisplay:10.37,2013-11-21 01:15:00,
2013-11-20 20:20:00,29.2,19.9,30.60,SW,226,0.2,1.0,68,0.00,,,0.00,WeatherDisplay:10.37,2013-11-21 01:20:00,
2013-11-20 20:25:00,28.8,19.9,30.60,SW,226,0.4,1.2,69,0.00,,,0.00,WeatherDisplay:10.37,2013-11-21 01:25:00,
2013-11-20 20:30:00,28.7,18.8,30.60,SW,226,0.0,1.0,66,0.00,,,0.00,WeatherDisplay:10.37,2013-11-21 01:30:00,
2013-11-20 20:35:00,29.2,18.5,30.60,SW,226,0.6,2.3,64,0.00,,,0.00,WeatherDisplay:10.37,2013-11-21 01:35:00,
2013-11-20 20:40:00,29.4,19.1,30.61,SW,226,0.4,1.2,65,0.00,,,0.00,WeatherDisplay:10.37,2013-11-21 01:40:00,
2013-11-20 20:45:00,29.4,19.1,30.61,SW,226,0.3,1.0,65,0.00,,,0.00,WeatherDisplay:10.37,2013-11-21 01:45:00,
2013-11-20 20:50:00,29.2,19.6,30.61,WSW,248,0.3,2.3,67,0.00,,,0.00,WeatherDisplay:10.37,2013-11-21 01:50:00,
2013-11-20 20:55:00,28.7,19.5,30.60,WSW,248,0.0,1.2,68,0.00,,,0.00,WeatherDisplay:10.37,2013-11-21 01:55:00,
2013-11-20 21:00:00,28.3,19.4,30.60,WSW,248,0.3,1.2,69,0.00,,,0.00,WeatherDisplay:10.37,2013-11-21 02:00:00,
2013-11-20 21:05:00,28.1,18.9,30.60,WSW,248,0.5,1.2,68,0.00,,,0.00,WeatherDisplay:10.37,2013-11-21 02:05:00,
2013-11-20 21:10:00,28.3,19.1,30.60,WSW,248,0.3,1.2,68,0.00,,,0.00,WeatherDisplay:10.37,2013-11-21 02:10:00,
2013-11-20 21:15:00,28.2,19.0,30.60,WSW,248,0.4,2.3,68,0.00,,,0.00,WeatherDisplay:10.37,2013-11-21 02:15:00,
2013-11-20 21:20:00,28.0,19.1,30.60,WSW,248,0.7,1.2,69,0.00,,,0.00,WeatherDisplay:10.37,2013-11-21 02:20:00,
2013-11-20 21:25:00,27.8,19.3,30.60,WSW,248,0.0,1.2,70,0.00,,,0.00,WeatherDisplay:10.37,2013-11-21 02:25:00,
2013-11-20 21:30:00,27.7,19.8,30.60,WSW,248,0.0,0.0,72,0.00,,,0.00,WeatherDisplay:10.37,2013-11-21 02:30:00,
2013-11-20 21:35:00,27.4,18.6,30.61,WSW,248,0.0,0.0,69,0.00,,,0.00,WeatherDisplay:10.37,2013-11-21 02:35:00,
2013-11-20 21:40:00,27.2,18.4,30.61,WSW,248,0.3,2.3,69,0.00,,,0.00,WeatherDisplay:10.37,2013-11-21 02:40:00,
2013-11-20 21:45:00,26.9,18.7,30.61,WSW,248,0.3,0.0,71,0.00,,,0.00,WeatherDisplay:10.37,2013-11-21 02:45:00,
2013-11-20 21:50:00,26.7,18.2,30.61,WSW,248,0.0,1.0,70,0.00,,,0.00,WeatherDisplay:10.37,2013-11-21 02:50:00,
2013-11-20 21:55:00,26.6,18.5,30.60,WSW,248,0.0,1.0,71,0.00,,,0.00,WeatherDisplay:10.37,2013-11-21 02:55:00,
2013-11-20 22:00:00,26.7,18.6,30.61,WSW,248,0.0,1.0,71,0.00,,,0.00,WeatherDisplay:10.37,2013-11-21 03:00:00,
2013-11-20 22:05:00,26.6,17.8,30.61,WSW,248,0.0,0.0,69,0.00,,,0.00,WeatherDisplay:10.37,2013-11-21 03:05:00,
2013-11-20 22:10:00,26.6,18.1,30.61,WSW,248,0.0,0.0,70,0.00,,,0.00,WeatherDisplay:10.37,2013-11-21 03:10:00,
2013-11-20 22:15:00,26.6,18.1,30.61,WSW,248,0.0,0.0,70,0.00,,,0.00,WeatherDisplay:10.37,2013-11-21 03:15:00,
2013-11-20 22:20:00,26.5,17.7,30.61,WSW,248,0.0,0.0,69,0.00,,,0.00,WeatherDisplay:10.37,2013-11-21 03:20:00,
2013-11-20 22:25:00,26.3,17.9,30.61,WSW,248,0.0,0.0,70,0.00,,,0.00,WeatherDisplay:10.37,2013-11-21 03:25:00,
2013-11-20 22:30:00,26.2,17.7,30.61,WSW,248,0.0,0.0,70,0.00,,,0.00,WeatherDisplay:10.37,2013-11-21 03:30:00,
2013-11-20 22:35:00,26.0,17.9,30.61,WSW,248,0.0,0.0,71,0.00,,,0.00,WeatherDisplay:10.37,2013-11-21 03:35:00,
2013-11-20 22:40:00,25.9,17.8,30.62,WSW,248,0.0,0.0,71,0.00,,,0.00,WeatherDisplay:10.37,2013-11-21 03:40:00,
2013-11-20 22:45:00,25.8,17.4,30.61,WSW,248,0.0,0.0,70,0.00,,,0.00,WeatherDisplay:10.37,2013-11-21 03:45:00,
2013-11-20 22:50:00,25.7,17.9,30.62,WSW,248,0.0,0.0,72,0.00,,,0.00,WeatherDisplay:10.37,2013-11-21 03:50:00,
2013-11-20 22:55:00,25.7,17.6,30.62,WSW,248,0.0,0.0,71,0.00,,,0.00,WeatherDisplay:10.37,2013-11-21 03:55:00,
2013-11-20 23:00:00,25.5,17.7,30.62,WSW,248,0.0,0.0,72,0.00,,,0.00,WeatherDisplay:10.37,2013-11-21 04:00:00,
2013-11-20 23:05:00,25.6,18.1,30.62,WSW,248,0.0,0.0,73,0.00,,,0.00,WeatherDisplay:10.37,2013-11-21 04:05:00,
2013-11-20 23:10:00,25.5,18.0,30.62,WSW,248,0.0,0.0,73,0.00,,,0.00,WeatherDisplay:10.37,2013-11-21 04:10:00,
2013-11-20 23:15:00,25.4,17.6,30.62,WSW,248,0.0,0.0,72,0.00,,,0.00,WeatherDisplay:10.37,2013-11-21 04:15:00,
2013-11-20 23:20:00,25.4,17.0,30.62,WSW,248,0.0,0.0,70,0.00,,,0.00,WeatherDisplay:10.37,2013-11-21 04:20:00,
2013-11-20 23:25:00,25.3,17.2,30.62,WSW,248,0.0,0.0,71,0.00,,,0.00,WeatherDisplay:10.37,2013-11-21 04:25:00,
2013-11-20 23:30:00,25.2,17.1,30.62,WSW,248,0.0,0.0,71,0.00,,,0.00,WeatherDisplay:10.37,2013-11-21 04:30:00,
2013-11-20 23:35:00,25.1,17.7,30.62,WSW,248,0.0,0.0,73,0.00,,,0.00,WeatherDisplay:10.37,2013-11-21 04:35:00,
2013-11-20 23:40:00,25.0,17.6,30.62,WSW,248,0.0,0.0,73,0.00,,,0.00,WeatherDisplay:10.37,2013-11-21 04:40:00,
2013-11-20 23:45:00,24.9,17.1,30.62,WSW,248,0.0,0.0,72,0.00,,,0.00,WeatherDisplay:10.37,2013-11-21 04:45:00,
2013-11-20 23:50:00,24.8,17.7,30.62,WSW,248,0.0,0.0,74,0.00,,,0.00,WeatherDisplay:10.37,2013-11-21 04:50:00,
2013-11-20 23:55:00,24.5,17.1,30.62,WSW,248,0.0,0.0,73,0.00,,,0.00,WeatherDisplay:10.37,2013-11-21 04:55:00,